Time;durP1;ratioP1;P1;durP2;ratioP2;P2;SDS_P1;SDS_P2;PMS_P1;PMS_P2;Temp;Humidity;BMP_temperature;BMP_pressure;BME280_temperature;BME280_humidity;BME280_pressure;Samples;Min_cycle;Max_cycle;Signal;HPM_P1;HPM_P2
2023/07/31 00:00:23;;;;;;;4.43;2.83;;;;;;;20.99;97.12;65192.72;5071282;28;20181;-52
2023/07/31 00:02:48;;;;;;;5.40;2.20;;;;;;;21.03;96.32;65196.63;5071555;28;20673;-52
2023/07/31 00:05:15;;;;;;;3.05;2.83;;;;;;;21.04;96.23;65200.84;5071518;28;20654;-53
2023/07/31 00:07:41;;;;;;;3.00;2.72;;;;;;;20.96;96.69;65188.84;5071196;28;20243;-53
2023/07/31 00:10:07;;;;;;;4.75;2.80;;;;;;;20.97;96.66;65187.41;5071187;28;20275;-53
2023/07/31 00:12:32;;;;;;;3.10;2.70;;;;;;;21.05;96.87;65196.28;5071329;28;20243;-52
2023/07/31 00:14:58;;;;;;;4.45;2.85;;;;;;;21.07;97.15;65201.06;5071123;28;20220;-54
2023/07/31 00:17:23;;;;;;;3.00;2.70;;;;;;;21.18;97.87;65213.19;5071085;28;20576;-53
2023/07/31 00:19:50;;;;;;;3.03;2.72;;;;;;;21.18;99.38;65216.31;5070965;28;20196;-53
2023/07/31 00:22:16;;;;;;;3.17;2.63;;;;;;;21.09;98.22;65203.78;5071340;28;20212;-53
2023/07/31 00:24:41;;;;;;;2.88;2.67;;;;;;;21.17;98.71;65209.53;5071551;28;20192;-53
2023/07/31 00:27:07;;;;;;;4.30;3.05;;;;;;;21.20;97.51;65218.53;5071227;28;20712;-55
2023/07/31 00:29:32;;;;;;;3.85;2.80;;;;;;;21.29;96.43;65225.38;5070745;28;20211;-55
2023/07/31 00:31:58;;;;;;;3.47;2.55;;;;;;;21.32;97.49;65231.81;5071312;28;20262;-55
2023/07/31 00:34:23;;;;;;;3.35;2.78;;;;;;;21.29;96.73;65225.91;5070820;28;20250;-52
2023/07/31 00:36:48;;;;;;;3.10;2.80;;;;;;;21.08;98.12;65202.69;5070935;28;20213;-53
2023/07/31 00:39:14;;;;;;;3.72;2.90;;;;;;;20.95;99.71;65190.84;5070895;28;20281;-53
2023/07/31 00:41:39;;;;;;;6.28;3.38;;;;;;;20.98;100.00;65193.63;5070614;28;20675;-53
2023/07/31 00:44:05;;;;;;;4.30;3.30;;;;;;;21.05;100.00;65199.38;5070963;28;20200;-53
2023/07/31 00:46:30;;;;;;;3.95;3.30;;;;;;;21.14;100.00;65209.34;5070887;28;20215;-52
2023/07/31 00:48:57;;;;;;;5.28;3.10;;;;;;;21.11;100.00;65206.00;5069075;28;20626;-53
2023/07/31 00:51:22;;;;;;;4.72;3.85;;;;;;;20.87;100.00;65177.44;5070684;28;20223;-52
2023/07/31 00:53:48;;;;;;;3.85;3.35;;;;;;;20.70;100.00;65163.78;5070988;28;20643;-52
2023/07/31 00:56:14;;;;;;;3.85;3.55;;;;;;;20.57;100.00;65149.41;5070384;28;20651;-52
2023/07/31 00:58:40;;;;;;;5.93;4.00;;;;;;;20.52;100.00;65140.78;5070448;28;20660;-51
2023/07/31 01:01:06;;;;;;;4.45;4.05;;;;;;;20.55;100.00;65141.53;5070377;28;20211;-53
2023/07/31 01:03:31;;;;;;;5.45;4.45;;;;;;;20.58;100.00;65147.94;5070463;28;20208;-52
2023/07/31 01:06:21;;;;;;;4.97;4.47;;;;;;;20.70;100.00;65158.66;5070745;28;20220;-58
2023/07/31 01:09:35;;;;;;;6.13;5.45;;;;;;;20.58;100.00;65144.84;5070380;28;20239;-53
2023/07/31 01:12:03;;;;;;;6.85;5.75;;;;;;;20.45;100.00;65133.03;5025796;28;20216;-52
2023/07/31 01:14:28;;;;;;;6.68;6.03;;;;;;;20.36;100.00;65123.09;5070634;28;20185;-53
2023/07/31 01:16:54;;;;;;;6.25;5.68;;;;;;;20.40;100.00;65130.06;5052027;28;20205;-52
2023/07/31 01:19:23;;;;;;;7.30;5.93;;;;;;;20.36;100.00;65123.09;5070243;28;20200;-52
2023/07/31 01:22:06;;;;;;;7.85;6.85;;;;;;;20.31;100.00;65117.56;5070395;28;20295;-52
2023/07/31 01:24:54;;;;;;;8.07;7.28;;;;;;;20.31;100.00;65117.56;5070210;28;20296;-52
2023/07/31 01:27:27;;;;;;;9.60;7.93;;;;;;;20.28;100.00;65114.78;5070075;28;20212;-53
2023/07/31 01:30:17;;;;;;;9.25;8.27;;;;;;;20.22;100.00;65107.63;5070031;28;20192;-53
2023/07/31 01:32:43;;;;;;;9.80;8.80;;;;;;;20.13;100.00;65100.78;5070265;28;20220;-53
2023/07/31 01:35:09;;;;;;;10.27;9.27;;;;;;;20.06;100.00;65088.47;5069797;28;20350;-53
2023/07/31 01:37:35;;;;;;;9.98;8.98;;;;;;;20.24;100.00;65112.94;5070426;28;20288;-53
2023/07/31 01:40:00;;;;;;;10.32;9.20;;;;;;;20.20;100.00;65108.53;5070038;28;20196;-53
2023/07/31 01:42:33;;;;;;;11.63;10.43;;;;;;;20.12;100.00;65097.09;5070343;28;20200;-53
2023/07/31 01:44:58;;;;;;;11.80;10.57;;;;;;;20.07;100.00;65089.03;5069762;28;20687;-53
2023/07/31 01:47:24;;;;;;;14.13;12.18;;;;;;;20.10;100.00;65094.88;5069930;28;20223;-52
2023/07/31 01:49:49;;;;;;;12.73;11.43;;;;;;;20.05;100.00;65087.38;5069766;28;20204;-52
2023/07/31 01:52:15;;;;;;;17.15;13.98;;;;;;;20.06;100.00;65093.03;5070117;28;20694;-56
2023/07/31 01:54:40;;;;;;;14.98;13.38;;;;;;;19.99;100.00;65083.31;5070210;28;20661;-53
2023/07/31 01:57:06;;;;;;;18.02;14.40;;;;;;;19.93;100.00;65076.13;5070016;28;20270;-52
2023/07/31 01:59:32;;;;;;;18.55;16.42;;;;;;;19.95;100.00;65078.88;5069549;28;20200;-52
2023/07/31 02:01:58;;;;;;;20.33;16.58;;;;;;;19.98;100.00;65084.19;5072644;28;20204;-52
2023/07/31 02:04:23;;;;;;;18.08;15.75;;;;;;;19.85;100.00;65067.84;5073270;28;20704;-54
2023/07/31 02:06:48;;;;;;;17.80;15.90;;;;;;;19.83;100.00;65062.53;5073377;28;20221;-58
2023/07/31 02:09:14;;;;;;;20.60;18.42;;;;;;;19.79;100.00;65061.22;5073109;28;20729;-54
2023/07/31 02:11:39;;;;;;;20.90;16.95;;;;;;;19.80;100.00;65062.31;5073389;28;20299;-52
2023/07/31 02:14:05;;;;;;;18.13;15.85;;;;;;;19.76;100.00;65057.34;5072923;28;20671;-54
2023/07/31 02:16:31;;;;;;;20.27;17.23;;;;;;;19.84;100.00;65069.28;5073361;28;20633;-52
2023/07/31 02:18:56;;;;;;;21.48;18.08;;;;;;;19.69;100.00;65049.63;5072888;28;20213;-52
2023/07/31 02:21:21;;;;;;;21.20;18.30;;;;;;;19.67;100.00;65052.53;5072808;28;20209;-53
2023/07/31 02:23:47;;;;;;;20.42;17.15;;;;;;;19.67;100.00;65050.53;5073317;28;20576;-53
2023/07/31 02:26:12;;;;;;;23.58;18.17;;;;;;;19.74;100.00;65057.69;5072951;28;20212;-52
2023/07/31 02:28:38;;;;;;;20.27;17.88;;;;;;;19.77;100.00;65058.44;5072786;28;20184;-52
2023/07/31 02:31:03;;;;;;;22.13;17.98;;;;;;;19.75;100.00;65056.25;5054491;28;20300;-53
2023/07/31 02:33:29;;;;;;;21.52;18.52;;;;;;;19.87;100.00;65072.06;5072996;28;20279;-53
2023/07/31 02:35:54;;;;;;;20.92;18.35;;;;;;;19.77;100.00;65056.44;5072469;28;20699;-52
2023/07/31 02:38:20;;;;;;;20.75;18.65;;;;;;;19.85;100.00;65067.84;5072508;28;20208;-53
2023/07/31 02:40:45;;;;;;;22.17;18.83;;;;;;;19.90;100.00;65075.34;5072684;28;20209;-52
2023/07/31 02:43:11;;;;;;;20.85;18.38;;;;;;;19.84;100.00;65069.28;5072663;28;20204;-52
2023/07/31 02:45:36;;;;;;;19.85;17.75;;;;;;;19.90;100.00;65073.34;5072516;28;20223;-53
2023/07/31 02:48:02;;;;;;;21.05;18.27;;;;;;;19.93;100.00;65079.25;5072383;28;20249;-54
2023/07/31 02:50:30;;;;;;;21.70;18.05;;;;;;;19.90;100.00;65072.78;5072491;28;20275;-53
2023/07/31 02:52:55;;;;;;;19.83;17.73;;;;;;;20.03;100.00;65085.16;5080006;22;20236;-54
2023/07/31 02:55:21;;;;;;;20.15;18.02;;;;;;;20.12;100.00;65094.00;5072748;28;20212;-52
2023/07/31 02:57:47;;;;;;;21.45;18.77;;;;;;;19.96;100.00;65079.97;5072413;28;20214;-52
2023/07/31 03:00:13;;;;;;;20.60;18.20;;;;;;;20.05;100.00;65086.81;5072011;28;20284;-56
2023/07/31 03:02:38;;;;;;;21.08;18.58;;;;;;;20.06;100.00;65093.03;5072543;28;20200;-53
2023/07/31 03:05:04;;;;;;;22.00;18.95;;;;;;;20.12;100.00;65097.09;5072623;28;20277;-50
2023/07/31 03:07:30;;;;;;;19.77;17.65;;;;;;;20.18;100.00;65103.19;5072605;28;20812;-51
2023/07/31 03:09:55;;;;;;;19.63;17.52;;;;;;;20.15;100.00;65099.88;5072162;28;20693;-51
2023/07/31 03:12:21;;;;;;;21.88;17.02;;;;;;;20.16;100.00;65100.97;5070939;28;20266;-52
2023/07/31 03:14:46;;;;;;;21.52;17.92;;;;;;;20.22;100.00;65108.16;5072336;28;20217;-51
2023/07/31 03:17:12;;;;;;;22.67;18.42;;;;;;;20.13;100.00;65095.66;5072321;28;20209;-56
2023/07/31 03:19:37;;;;;;;23.58;18.10;;;;;;;20.13;100.00;65097.66;5072036;28;20667;-54
2023/07/31 03:22:03;;;;;;;21.35;18.45;;;;;;;20.10;100.00;65095.44;5071865;28;20216;-51
2023/07/31 03:24:29;;;;;;;21.98;18.27;;;;;;;20.14;100.00;65101.88;5072395;28;20203;-51
2023/07/31 03:26:54;;;;;;;22.77;18.67;;;;;;;20.12;100.00;65096.56;5072300;28;20224;-50
2023/07/31 03:29:20;;;;;;;20.55;17.80;;;;;;;20.04;100.00;65091.38;5071818;28;20189;-51
2023/07/31 03:31:45;;;;;;;22.73;18.88;;;;;;;20.01;100.00;65087.50;5071642;28;20687;-58
2023/07/31 03:34:11;;;;;;;24.40;19.42;;;;;;;20.01;100.00;65082.41;5071923;28;20735;-51
2023/07/31 03:36:36;;;;;;;21.67;19.02;;;;;;;20.03;100.00;65087.16;5071740;28;20225;-51
2023/07/31 03:39:03;;;;;;;22.58;19.02;;;;;;;20.08;100.00;65093.25;5071651;28;20209;-54
2023/07/31 03:41:28;;;;;;;21.63;18.50;;;;;;;20.09;100.00;65096.91;5071729;28;20216;-51
2023/07/31 03:43:55;;;;;;;21.55;19.10;;;;;;;20.15;100.00;65097.88;5053900;28;20246;-51
2023/07/31 03:46:22;;;;;;;22.08;18.17;;;;;;;20.16;100.00;65104.06;5053451;28;20262;-50
2023/07/31 03:48:47;;;;;;;21.88;18.88;;;;;;;20.30;100.00;65114.44;5071606;28;20189;-53
2023/07/31 03:51:13;;;;;;;21.67;19.15;;;;;;;20.34;100.00;65121.44;5071659;28;20208;-54
2023/07/31 03:53:39;;;;;;;22.45;18.83;;;;;;;20.42;100.00;65130.25;5072041;28;20692;-52
2023/07/31 03:56:04;;;;;;;23.33;19.90;;;;;;;20.36;100.00;65121.06;5053479;28;20302;-50
2023/07/31 03:58:30;;;;;;;21.98;18.63;;;;;;;20.36;100.00;65123.09;5071344;28;20204;-50
2023/07/31 04:00:55;;;;;;;22.88;19.05;;;;;;;20.33;100.00;65124.91;5071087;28;20868;-53
2023/07/31 04:03:21;;;;;;;21.65;19.20;;;;;;;20.29;100.00;65113.34;5070031;28;20554;-56
2023/07/31 04:05:46;;;;;;;21.88;18.83;;;;;;;20.33;100.00;65122.34;5071223;28;20211;-52
2023/07/31 04:08:12;;;;;;;21.83;18.17;;;;;;;20.27;100.00;65113.69;5071410;28;20209;-51
2023/07/31 04:10:37;;;;;;;23.33;20.02;;;;;;;20.20;100.00;65105.41;5071267;28;20200;-52
2023/07/31 04:13:03;;;;;;;26.40;19.70;;;;;;;20.24;100.00;65110.38;5071304;28;20661;-51
2023/07/31 04:15:28;;;;;;;22.65;18.77;;;;;;;20.28;100.00;65114.25;5071026;28;20585;-51
2023/07/31 04:17:54;;;;;;;23.58;19.88;;;;;;;20.22;100.00;65110.72;5070967;28;20213;-51
2023/07/31 04:20:19;;;;;;;26.90;20.63;;;;;;;20.20;100.00;65105.41;5071070;28;20196;-52
2023/07/31 04:22:45;;;;;;;26.50;20.25;;;;;;;20.24;100.00;65109.84;5071539;28;20216;-51
2023/07/31 04:25:10;;;;;;;23.52;20.17;;;;;;;20.22;100.00;65105.59;5070898;28;20754;-51
2023/07/31 04:27:36;;;;;;;23.40;19.52;;;;;;;20.23;100.00;65111.28;5070884;28;20212;-51
2023/07/31 04:30:01;;;;;;;23.48;20.05;;;;;;;20.23;100.00;65108.72;5070773;28;20592;-52
2023/07/31 04:32:26;;;;;;;25.45;20.15;;;;;;;20.20;100.00;65105.97;5070501;28;20295;-51
2023/07/31 04:34:52;;;;;;;23.48;18.67;;;;;;;20.24;100.00;65110.38;5071088;28;20584;-51
2023/07/31 04:37:17;;;;;;;23.02;19.27;;;;;;;20.24;100.00;65112.41;5070602;28;20557;-53
2023/07/31 04:39:43;;;;;;;25.13;19.30;;;;;;;20.29;100.00;65117.91;5071211;28;20200;-52
2023/07/31 04:42:08;;;;;;;24.98;18.77;;;;;;;20.32;100.00;65121.78;5071000;28;20757;-51
2023/07/31 04:44:33;;;;;;;23.23;20.23;;;;;;;20.37;100.00;65124.19;5070866;28;20212;-51
2023/07/31 04:46:59;;;;;;;25.23;19.20;;;;;;;20.30;100.00;65113.91;5070700;28;20282;-53
2023/07/31 04:49:24;;;;;;;23.58;20.30;;;;;;;20.46;100.00;65134.69;5070666;28;20192;-51
2023/07/31 04:51:50;;;;;;;24.40;19.88;;;;;;;20.41;100.00;65126.06;5070909;28;20645;-52
2023/07/31 04:54:15;;;;;;;22.40;18.30;;;;;;;20.32;100.00;65118.69;5071079;28;20659;-51
2023/07/31 04:56:41;;;;;;;25.55;19.15;;;;;;;20.32;100.00;65121.25;5070279;28;20620;-51
2023/07/31 04:59:07;;;;;;;22.33;18.65;;;;;;;20.36;100.00;65126.19;5069284;28;20205;-51
2023/07/31 05:01:32;;;;;;;24.92;19.30;;;;;;;20.35;100.00;65124.53;5070664;28;20218;-51
2023/07/31 05:03:58;;;;;;;19.95;17.42;;;;;;;20.45;100.00;65130.47;5070587;28;20284;-54
2023/07/31 05:06:23;;;;;;;21.15;18.17;;;;;;;20.43;100.00;65131.38;5070389;28;20691;-51
2023/07/31 05:08:48;;;;;;;20.25;18.15;;;;;;;20.47;100.00;65135.25;5069072;28;20208;-51
2023/07/31 05:11:14;;;;;;;24.15;18.27;;;;;;;20.44;100.00;65132.47;5070336;28;20217;-52
2023/07/31 05:13:39;;;;;;;22.27;18.40;;;;;;;20.60;100.00;65147.06;5070603;28;20260;-52
2023/07/31 05:16:04;;;;;;;20.20;17.63;;;;;;;20.60;100.00;65147.63;5070052;28;20667;-55
2023/07/31 05:18:30;;;;;;;24.45;18.80;;;;;;;20.62;100.00;65151.84;5070230;28;20196;-51
2023/07/31 05:20:55;;;;;;;20.75;17.80;;;;;;;20.69;100.00;65159.56;5070358;28;20903;-51
2023/07/31 05:23:21;;;;;;;21.92;17.85;;;;;;;20.76;100.00;65167.31;5070532;28;20625;-51
2023/07/31 05:25:46;;;;;;;22.60;17.67;;;;;;;20.73;100.00;65166.53;5070061;28;20695;-52
2023/07/31 05:28:12;;;;;;;18.48;16.55;;;;;;;20.70;100.00;65161.22;5069982;28;20211;-52
2023/07/31 05:30:39;;;;;;;18.23;15.70;;;;;;;20.75;100.00;65166.75;5070040;28;20197;-52
2023/07/31 05:33:04;;;;;;;18.05;15.38;;;;;;;20.80;100.00;65171.72;5070680;28;20232;-53
2023/07/31 05:35:30;;;;;;;16.92;14.63;;;;;;;20.79;100.00;65170.59;5070240;28;20711;-54
2023/07/31 05:37:56;;;;;;;15.77;14.10;;;;;;;20.90;100.00;65182.78;5073595;28;20558;-51
2023/07/31 05:40:21;;;;;;;16.05;14.45;;;;;;;21.06;100.00;65200.50;5073567;28;20211;-51
2023/07/31 05:42:47;;;;;;;17.20;13.95;;;;;;;20.95;100.00;65188.31;5055420;28;20304;-52
2023/07/31 05:45:13;;;;;;;14.63;13.13;;;;;;;21.04;100.00;65198.28;5073467;28;20197;-52
2023/07/31 05:47:40;;;;;;;12.48;11.18;;;;;;;20.99;100.00;65192.19;5053375;28;20242;-52
2023/07/31 05:50:05;;;;;;;14.77;12.43;;;;;;;20.95;100.00;65188.31;5073144;28;20662;-51
2023/07/31 05:52:31;;;;;;;16.52;12.27;;;;;;;21.01;100.00;65192.38;5071494;28;20282;-56
2023/07/31 05:54:56;;;;;;;11.38;10.27;;;;;;;20.98;100.00;65191.06;5073066;28;20646;-51
2023/07/31 05:57:22;;;;;;;10.38;9.38;;;;;;;20.96;100.00;65191.97;5073439;28;20243;-53
2023/07/31 05:59:47;;;;;;;11.65;9.90;;;;;;;21.02;100.00;65198.63;5073436;28;20227;-55
2023/07/31 06:02:13;;;;;;;9.98;8.95;;;;;;;21.13;100.00;65207.69;5073670;28;20220;-51
2023/07/31 06:04:39;;;;;;;10.50;9.00;;;;;;;21.13;100.00;65203.09;5073934;28;20706;-53
2023/07/31 06:07:05;;;;;;;12.23;9.93;;;;;;;21.09;100.00;65203.78;5071739;28;20213;-52
2023/07/31 06:09:31;;;;;;;9.63;8.68;;;;;;;21.11;100.00;65202.91;5073364;28;20205;-51
2023/07/31 06:11:57;;;;;;;10.15;9.13;;;;;;;20.96;100.00;65191.97;5073243;28;20220;-52
2023/07/31 06:14:22;;;;;;;10.05;8.85;;;;;;;20.95;100.00;65185.19;5073406;28;20204;-51
2023/07/31 06:16:48;;;;;;;7.93;7.13;;;;;;;21.08;100.00;65200.13;5073001;28;20221;-51
2023/07/31 06:19:13;;;;;;;9.40;7.03;;;;;;;21.05;99.56;65199.38;5073111;28;20235;-51
2023/07/31 06:21:39;;;;;;;9.40;7.53;;;;;;;21.09;99.05;65203.25;5073076;28;20256;-50
2023/07/31 06:24:05;;;;;;;7.18;6.20;;;;;;;21.16;98.68;65211.53;5072859;28;20217;-51
2023/07/31 06:26:31;;;;;;;9.73;6.35;;;;;;;21.26;98.02;65225.16;5073060;28;20315;-51
2023/07/31 06:28:57;;;;;;;7.05;6.35;;;;;;;21.36;96.55;65233.66;5072782;28;20196;-51
2023/07/31 06:31:22;;;;;;;6.95;5.47;;;;;;;21.46;92.93;65241.59;5073100;28;20330;-52
2023/07/31 06:33:52;;;;;;;5.00;4.47;;;;;;;21.59;90.71;65259.09;5072806;28;20258;-51
2023/07/31 06:36:18;;;;;;;5.20;4.40;;;;;;;21.68;89.85;65268.50;5072603;28;20282;-53
2023/07/31 06:38:43;;;;;;;4.25;3.85;;;;;;;21.70;89.32;65271.28;5054778;28;20731;-52
2023/07/31 06:41:10;;;;;;;8.32;5.00;;;;;;;21.67;88.67;65265.38;5072639;28;20215;-51
2023/07/31 06:43:36;;;;;;;5.30;4.47;;;;;;;21.66;88.88;65266.84;5072867;28;20258;-52
2023/07/31 06:46:08;;;;;;;5.53;4.88;;;;;;;21.77;89.50;65277.91;5054573;28;20205;-54
2023/07/31 06:48:36;;;;;;;8.05;4.70;;;;;;;21.72;88.90;65273.50;5072589;28;20251;-55
2023/07/31 06:51:03;;;;;;;5.30;4.80;;;;;;;21.52;92.00;65251.38;5072819;28;20217;-54
2023/07/31 06:53:29;;;;;;;5.47;4.78;;;;;;;21.74;90.69;65272.56;5072576;28;20205;-53
2023/07/31 06:55:55;;;;;;;4.72;4.30;;;;;;;21.79;90.85;65277.56;5072544;28;20217;-53
2023/07/31 06:58:21;;;;;;;5.18;4.68;;;;;;;21.81;90.92;65282.34;5072521;28;20203;-54
2023/07/31 07:00:48;;;;;;;5.03;4.55;;;;;;;21.78;91.36;65277.00;5072377;28;20201;-52
2023/07/31 07:03:14;;;;;;;6.47;4.65;;;;;;;21.72;90.90;65273.50;5072901;28;20235;-56
2023/07/31 07:05:40;;;;;;;4.32;3.97;;;;;;;21.68;90.18;65268.50;5072252;28;20651;-51
2023/07/31 07:08:06;;;;;;;6.63;3.92;;;;;;;21.64;90.23;65264.06;5072660;28;20205;-51
2023/07/31 07:10:31;;;;;;;5.30;3.63;;;;;;;21.70;89.74;65268.16;5054640;28;20306;-50
2023/07/31 07:12:57;;;;;;;6.70;3.97;;;;;;;21.67;89.14;65264.84;5072136;28;20205;-50
2023/07/31 07:15:22;;;;;;;4.35;3.95;;;;;;;21.93;88.68;65296.19;5072131;28;20223;-51
2023/07/31 07:17:47;;;;;;;5.63;3.85;;;;;;;21.92;87.78;65292.50;5072211;28;20647;-51
2023/07/31 07:20:13;;;;;;;5.07;3.85;;;;;;;22.20;85.51;65322.97;5053943;28;20578;-50
2023/07/31 07:22:42;;;;;;;4.35;3.78;;;;;;;22.41;84.79;65346.75;5054097;28;20208;-51
2023/07/31 07:25:08;;;;;;;4.60;3.70;;;;;;;22.51;83.12;65357.25;5054668;28;20315;-50
2023/07/31 07:27:34;;;;;;;4.20;3.75;;;;;;;22.56;82.52;65365.91;5071852;28;20726;-49
2023/07/31 07:30:00;;;;;;;4.75;3.90;;;;;;;22.66;81.89;65370.78;5054152;28;20208;-51
2023/07/31 07:32:25;;;;;;;5.40;3.45;;;;;;;22.46;80.48;65354.31;5072254;28;20301;-51
2023/07/31 07:34:51;;;;;;;4.00;3.50;;;;;;;22.32;81.27;65334.22;5071703;28;20208;-50
2023/07/31 07:37:16;;;;;;;3.90;3.40;;;;;;;22.49;81.67;65358.19;5053957;28;20330;-50
2023/07/31 07:39:42;;;;;;;5.88;3.75;;;;;;;22.38;82.98;65343.41;5070525;28;20204;-51
2023/07/31 07:42:07;;;;;;;4.00;3.58;;;;;;;22.38;82.25;65342.88;5071501;28;20683;-50
2023/07/31 07:44:33;;;;;;;4.95;3.53;;;;;;;22.49;82.30;65355.59;5071603;28;20205;-53
2023/07/31 07:46:58;;;;;;;3.00;2.80;;;;;;;22.56;79.47;65362.81;5071759;28;20205;-52
2023/07/31 07:49:24;;;;;;;4.00;3.63;;;;;;;22.60;80.39;65369.81;5070591;28;20205;-53
2023/07/31 07:51:50;;;;;;;4.30;3.90;;;;;;;22.59;78.48;65366.13;5071857;28;20753;-52
2023/07/31 07:54:21;;;;;;;5.20;3.00;;;;;;;22.79;77.56;65392.88;5071577;28;20205;-51
2023/07/31 07:56:47;;;;;;;3.33;3.03;;;;;;;23.02;77.93;65413.22;5071346;28;20228;-51
2023/07/31 07:59:12;;;;;;;4.95;3.53;;;;;;;23.22;76.92;65435.91;5070669;28;20216;-51
2023/07/31 08:01:38;;;;;;;6.63;3.10;;;;;;;23.61;76.24;65478.03;5071681;28;20241;-51
2023/07/31 08:04:04;;;;;;;5.05;3.55;;;;;;;23.54;74.54;65470.28;5069816;28;20248;-51
2023/07/31 08:06:30;;;;;;;3.92;3.40;;;;;;;23.63;73.57;65483.41;5071564;28;20699;-52
2023/07/31 08:08:55;;;;;;;3.03;2.72;;;;;;;23.69;71.48;65486.91;5053557;28;20254;-51
2023/07/31 08:11:23;;;;;;;3.17;2.67;;;;;;;23.58;69.83;65475.28;5071373;28;20248;-50
2023/07/31 08:13:49;;;;;;;3.55;2.88;;;;;;;23.54;70.07;65470.28;5071157;28;20197;-52
2023/07/31 08:16:14;;;;;;;5.88;3.33;;;;;;;23.75;71.62;65494.13;5071313;28;20274;-50
2023/07/31 08:18:40;;;;;;;5.50;3.35;;;;;;;23.94;70.80;65517.19;5071637;28;20205;-51
2023/07/31 08:21:06;;;;;;;6.03;3.50;;;;;;;24.05;70.37;65527.41;5071668;28;20217;-52
2023/07/31 08:23:31;;;;;;;3.10;2.90;;;;;;;24.25;69.60;65549.00;5071046;28;20547;-50
2023/07/31 08:25:56;;;;;;;6.25;3.40;;;;;;;24.32;68.66;65556.22;5071147;28;20254;-51
2023/07/31 08:28:22;;;;;;;4.03;3.50;;;;;;;24.04;69.83;65525.72;5070948;28;20197;-52
2023/07/31 08:30:48;;;;;;;4.13;3.40;;;;;;;24.07;67.84;65529.63;5071320;28;20209;-51
2023/07/31 08:33:13;;;;;;;4.05;3.03;;;;;;;23.95;68.09;65513.16;5070728;28;20412;-52
2023/07/31 08:35:39;;;;;;;3.67;3.10;;;;;;;24.10;68.82;65532.94;5070641;28;20209;-50
2023/07/31 08:38:04;;;;;;;5.95;2.88;;;;;;;24.17;67.43;65540.13;5070909;28;20239;-51
2023/07/31 08:40:30;;;;;;;4.55;3.28;;;;;;;24.09;67.44;65531.84;5070693;28;20330;-52
2023/07/31 08:43:02;;;;;;;3.40;3.10;;;;;;;24.27;67.92;65550.66;5052617;28;20258;-51
2023/07/31 08:45:28;;;;;;;3.50;3.20;;;;;;;24.60;68.30;65587.84;5070587;28;20204;-54
2023/07/31 08:47:55;;;;;;;3.67;3.38;;;;;;;24.36;66.04;65558.63;5070762;28;20295;-50
2023/07/31 08:50:21;;;;;;;3.50;2.92;;;;;;;24.19;64.67;65547.50;5070813;28;20292;-51
2023/07/31 08:52:48;;;;;;;5.68;2.70;;;;;;;24.37;65.40;65557.16;5070376;28;20662;-51
2023/07/31 08:55:13;;;;;;;3.60;3.30;;;;;;;24.61;64.50;65588.94;5052306;28;20220;-51
2023/07/31 08:57:40;;;;;;;3.83;3.30;;;;;;;24.68;63.54;65594.13;5070841;28;20694;-50
2023/07/31 09:00:07;;;;;;;2.83;2.60;;;;;;;24.79;62.99;65608.91;5071113;28;20208;-50
2023/07/31 09:02:46;;;;;;;4.32;2.83;;;;;;;24.60;62.49;65587.28;5070544;28;20216;-52
2023/07/31 09:05:12;;;;;;;4.05;2.97;;;;;;;24.73;62.25;65602.25;5070568;28;20204;-50
2023/07/31 09:07:39;;;;;;;3.10;2.80;;;;;;;24.70;63.36;65600.94;5070475;28;20716;-51
2023/07/31 09:10:05;;;;;;;2.92;2.63;;;;;;;24.62;63.39;65589.50;5068849;28;20343;-50
2023/07/31 09:12:31;;;;;;;5.47;2.83;;;;;;;24.33;63.70;65557.31;5070146;28;20224;-50
2023/07/31 09:14:57;;;;;;;4.30;3.33;;;;;;;24.76;63.17;65608.19;5070264;28;20240;-50
2023/07/31 09:17:33;;;;;;;2.67;2.47;;;;;;;24.72;61.74;65598.56;5069904;28;20229;-50
2023/07/31 09:20:25;;;;;;;4.63;3.05;;;;;;;24.91;60.54;65619.09;5070125;28;20211;-51
2023/07/31 09:22:51;;;;;;;2.80;2.58;;;;;;;25.20;59.65;65650.72;5065261;28;20236;-49
2023/07/31 09:25:25;;;;;;;2.97;2.67;;;;;;;25.58;58.70;65698.66;5070309;28;20208;-51
2023/07/31 09:27:54;;;;;;;2.92;2.70;;;;;;;25.73;58.55;65712.69;5070157;28;20269;-51
2023/07/31 09:30:21;;;;;;;3.50;2.83;;;;;;;25.63;57.01;65703.66;5070076;28;20227;-54
2023/07/31 09:32:48;;;;;;;3.85;2.97;;;;;;;25.36;57.65;65668.47;5070084;28;20223;-52
2023/07/31 09:35:43;;;;;;;5.82;3.10;;;;;;;25.65;56.60;65703.81;5069873;28;20227;-49
2023/07/31 09:38:12;;;;;;;3.03;2.72;;;;;;;25.66;56.23;65704.94;5070443;28;20208;-51
2023/07/31 09:40:43;;;;;;;3.25;2.90;;;;;;;25.46;57.35;65684.75;5070190;28;20216;-52
2023/07/31 09:43:11;;;;;;;6.35;3.28;;;;;;;25.76;58.19;65715.47;5069800;28;20168;-51
2023/07/31 09:45:44;;;;;;;3.10;2.80;;;;;;;25.52;59.15;65688.84;5070116;28;20220;-51
2023/07/31 09:48:15;;;;;;;5.25;3.33;;;;;;;25.05;59.94;65634.63;5070182;28;20205;-51
2023/07/31 09:50:43;;;;;;;3.55;3.00;;;;;;;25.02;59.51;65635.91;5069227;28;20213;-50
2023/07/31 09:53:09;;;;;;;4.93;3.15;;;;;;;25.37;58.77;65672.19;5069151;28;20249;-51
2023/07/31 09:55:36;;;;;;;3.83;2.83;;;;;;;26.17;57.33;65758.47;5069475;28;20315;-50
2023/07/31 09:58:04;;;;;;;6.38;3.13;;;;;;;26.44;55.95;65788.44;5069981;28;20203;-52
2023/07/31 10:00:30;;;;;;;3.45;2.95;;;;;;;26.44;54.74;65787.91;5069572;28;20262;-52
2023/07/31 10:03:00;;;;;;;4.38;3.30;;;;;;;26.13;56.46;65753.47;5069665;28;20204;-50
2023/07/31 10:05:33;;;;;;;3.30;2.88;;;;;;;26.51;54.47;65798.81;5052037;28;20197;-49
2023/07/31 10:07:58;;;;;;;3.70;2.70;;;;;;;26.87;53.21;65838.28;5069525;28;20350;-51
2023/07/31 10:10:25;;;;;;;3.50;2.63;;;;;;;26.30;53.32;65775.47;5069611;28;20280;-50
2023/07/31 10:12:52;;;;;;;3.20;2.50;;;;;;;25.65;55.06;65703.81;5069511;28;20251;-50
2023/07/31 10:15:19;;;;;;;3.70;2.30;;;;;;;26.06;54.75;65748.78;5051314;28;20204;-49
2023/07/31 10:17:47;;;;;;;2.63;2.42;;;;;;;26.04;54.23;65746.56;5069732;28;20261;-49
2023/07/31 10:20:14;;;;;;;3.10;2.30;;;;;;;25.80;55.21;65719.94;5069226;28;20189;-50
2023/07/31 10:22:40;;;;;;;4.90;2.38;;;;;;;25.86;54.71;65724.00;5071377;28;20229;-49
2023/07/31 10:25:08;;;;;;;2.42;2.17;;;;;;;25.85;54.74;65724.94;5072796;28;20188;-55
2023/07/31 10:27:35;;;;;;;2.47;2.22;;;;;;;26.33;54.22;65776.22;5073227;28;20297;-50
2023/07/31 10:30:05;;;;;;;2.70;2.38;;;;;;;25.76;55.74;65716.03;5073230;28;20192;-50
2023/07/31 10:32:31;;;;;;;4.13;2.55;;;;;;;25.45;55.21;65681.09;5072343;28;20219;-50
2023/07/31 10:34:57;;;;;;;2.80;2.60;;;;;;;25.54;55.62;65691.06;5072698;28;20208;-50
2023/07/31 10:37:24;;;;;;;2.70;2.30;;;;;;;26.60;52.34;65806.22;5073145;28;20216;-49
2023/07/31 10:39:56;;;;;;;2.80;2.00;;;;;;;26.99;50.39;65851.63;5072822;28;20208;-50
2023/07/31 10:42:28;;;;;;;4.15;1.80;;;;;;;26.68;49.64;65814.00;5072856;28;20228;-50
2023/07/31 10:44:58;;;;;;;2.53;2.10;;;;;;;27.21;49.92;65872.94;5072444;28;20258;-50
2023/07/31 10:47:23;;;;;;;2.85;2.28;;;;;;;28.29;48.15;65991.97;5072962;28;20209;-57
2023/07/31 10:49:49;;;;;;;3.92;1.65;;;;;;;29.01;45.43;66069.53;5072858;28;20273;-51
2023/07/31 10:52:22;;;;;;;3.97;2.80;;;;;;;28.60;44.43;66026.50;5072317;28;20295;-52
2023/07/31 10:54:49;;;;;;;3.38;2.15;;;;;;;28.09;46.05;65970.28;5072334;28;20205;-52
2023/07/31 10:57:22;;;;;;;2.20;2.00;;;;;;;28.65;46.64;66034.66;5072471;28;20212;-49
2023/07/31 10:59:50;;;;;;;2.15;1.95;;;;;;;28.88;43.90;66060.81;5072405;28;20173;-50
2023/07/31 11:02:29;;;;;;;1.80;1.70;;;;;;;28.95;43.54;66065.44;5072300;28;20205;-51
2023/07/31 11:05:09;;;;;;;3.78;1.98;;;;;;;28.40;44.47;66006.81;5071174;28;20208;-50
2023/07/31 11:07:50;;;;;;;3.08;2.33;;;;;;;27.58;45.98;65914.09;5072332;28;20209;-50
2023/07/31 11:10:19;;;;;;;3.17;2.10;;;;;;;27.57;46.35;65915.56;5072102;28;20196;-49
2023/07/31 11:12:47;;;;;;;6.03;1.85;;;;;;;27.48;46.40;65905.00;5072005;28;20295;-50
2023/07/31 11:15:13;;;;;;;4.03;2.20;;;;;;;27.19;48.00;65870.72;5071845;28;20694;-50
2023/07/31 11:17:41;;;;;;;2.53;2.00;;;;;;;26.75;48.74;65824.38;5071961;28;20215;-50
2023/07/31 11:20:07;;;;;;;2.30;2.10;;;;;;;27.03;48.78;65850.31;5071880;28;20247;-49